createdAt,value
2018-07-30T00:00:37.835Z,21.22
2018-07-30T00:01:37.574Z,21.24
2018-07-30T00:02:37.822Z,21.17
2018-07-30T00:03:37.821Z,21.12
2018-07-30T00:04:37.827Z,21.14
2018-07-30T00:05:37.817Z,21.19
2018-07-30T00:06:37.825Z,21.14
2018-07-30T00:07:37.825Z,21.1
2018-07-30T00:08:37.823Z,21.16
2018-07-30T00:09:37.813Z,21.13
2018-07-30T00:10:37.812Z,21.16
2018-07-30T00:11:37.816Z,21.13
2018-07-30T00:12:37.806Z,21.07
2018-07-30T00:13:37.804Z,21.16
2018-07-30T00:14:37.805Z,21.17
2018-07-30T00:15:37.806Z,21.12
2018-07-30T00:16:37.545Z,21.07
2018-07-30T00:17:37.794Z,21.12
2018-07-30T00:18:37.790Z,21.16
2018-07-30T00:19:37.796Z,21.06
2018-07-30T00:20:37.811Z,21.17
2018-07-30T00:21:37.553Z,21.14
2018-07-30T00:22:37.780Z,21.16
2018-07-30T00:23:37.787Z,21.12
2018-07-30T00:24:37.781Z,21.1
2018-07-30T00:25:37.774Z,21.13
2018-07-30T00:26:37.775Z,21.09
2018-07-30T00:27:37.772Z,21.07
2018-07-30T00:28:37.776Z,21.09
2018-07-30T00:29:37.772Z,21.03
2018-07-30T00:30:37.778Z,21.06
2018-07-30T00:31:38.016Z,21.03
2018-07-30T00:32:37.764Z,21.04
2018-07-30T00:33:37.760Z,21.06
2018-07-30T00:34:37.760Z,21.03
2018-07-30T00:35:37.763Z,21.01
2018-07-30T00:36:37.752Z,20.99
2018-07-30T00:37:37.750Z,20.97
2018-07-30T00:38:37.495Z,21.04
2018-07-30T00:39:37.755Z,20.98
2018-07-30T00:40:37.744Z,20.98
2018-07-30T00:41:37.742Z,21.03
2018-07-30T00:42:37.738Z,20.97
2018-07-30T00:43:37.494Z,20.95
2018-07-30T00:44:37.751Z,20.92
2018-07-30T00:45:37.482Z,20.88
2018-07-30T00:46:37.734Z,20.89
2018-07-30T00:47:37.743Z,20.88
2018-07-30T00:48:37.734Z,20.91
2018-07-30T00:49:37.724Z,20.91
2018-07-30T00:50:37.722Z,20.87
2018-07-30T00:51:37.471Z,20.87
2018-07-30T00:52:37.718Z,20.89
2018-07-30T00:53:37.472Z,20.88
2018-07-30T00:54:37.712Z,20.89
2018-07-30T00:55:37.709Z,20.97
2018-07-30T00:56:37.740Z,20.92
2018-07-30T00:57:37.706Z,20.95
2018-07-30T00:58:37.705Z,21.03
2018-07-30T00:59:37.705Z,21.04
2018-07-30T01:00:37.702Z,21.04
2018-07-30T01:01:37.445Z,21.07
2018-07-30T01:02:37.697Z,21.09
2018-07-30T01:03:37.694Z,21.1
2018-07-30T01:04:37.453Z,21.1
2018-07-30T01:05:37.190Z,21.19
2018-07-30T01:06:37.686Z,21.13
2018-07-30T01:07:37.885Z,21.1
2018-07-30T01:08:37.686Z,21.16
2018-07-30T01:09:37.679Z,21.09
2018-07-30T01:10:37.679Z,21.17
2018-07-30T01:11:37.431Z,21.1
2018-07-30T01:12:37.674Z,21.19
2018-07-30T01:13:37.674Z,21.1
2018-07-30T01:14:37.686Z,21.13
2018-07-30T01:15:37.666Z,21.13
2018-07-30T01:16:37.421Z,21.13
2018-07-30T01:17:37.682Z,21.13
2018-07-30T01:18:37.436Z,21.13
2018-07-30T01:19:37.667Z,21.19
2018-07-30T01:20:37.653Z,21.13
2018-07-30T01:21:37.454Z,21.17
2018-07-30T01:22:37.653Z,21.13
2018-07-30T01:23:37.660Z,21.1
2018-07-30T01:24:37.647Z,21.1
2018-07-30T01:25:37.645Z,21.1
2018-07-30T01:26:37.649Z,21.13
2018-07-30T01:27:37.645Z,21.16
2018-07-30T01:28:37.639Z,21.14
2018-07-30T01:29:37.636Z,21.14
2018-07-30T01:30:37.637Z,21.09
2018-07-30T01:31:37.634Z,21.16
2018-07-30T01:32:37.632Z,21.19
2018-07-30T01:33:37.629Z,21.14
2018-07-30T01:34:37.626Z,21.17
2018-07-30T01:35:37.375Z,21.14
2018-07-30T01:36:37.626Z,21.14
2018-07-30T01:37:37.618Z,21.25
2018-07-30T01:38:37.621Z,21.09
2018-07-30T01:39:37.617Z,21.17
2018-07-30T01:40:37.609Z,21.17
2018-07-30T01:41:37.362Z,21.13
2018-07-30T01:42:37.612Z,21.22
2018-07-30T01:43:37.617Z,21.13
2018-07-30T01:44:37.608Z,21.13
2018-07-30T01:45:37.602Z,21.19
2018-07-30T01:46:37.601Z,21.13
2018-07-30T01:47:37.597Z,21.16
2018-07-30T01:48:37.344Z,21.13
2018-07-30T01:49:37.342Z,21.16
2018-07-30T01:50:37.593Z,21.13
2018-07-30T01:51:37.341Z,21.16
2018-07-30T01:52:37.586Z,21.13
2018-07-30T01:53:37.592Z,21.14
2018-07-30T01:54:37.583Z,21.07
2018-07-30T01:55:37.756Z,21.17
2018-07-30T01:56:37.371Z,21.16
2018-07-30T01:57:37.579Z,21.13
2018-07-30T01:58:37.323Z,21.25
2018-07-30T01:59:37.573Z,21.25
2018-07-30T02:00:37.570Z,21.21
2018-07-30T02:01:37.566Z,21.21
2018-07-30T02:02:37.566Z,21.25
2018-07-30T02:03:37.567Z,21.19
2018-07-30T02:04:37.564Z,21.29
2018-07-30T02:05:37.560Z,21.28
2018-07-30T02:06:37.306Z,21.21
2018-07-30T02:07:37.557Z,21.28
2018-07-30T02:08:37.307Z,21.31
2018-07-30T02:09:37.556Z,21.28
2018-07-30T02:10:37.564Z,21.28
2018-07-30T02:11:37.546Z,21.27
2018-07-30T02:12:37.554Z,21.21
2018-07-30T02:13:37.294Z,21.37
2018-07-30T02:14:37.541Z,21.35
2018-07-30T02:15:37.538Z,21.35
2018-07-30T02:16:37.537Z,21.34
2018-07-30T02:17:37.282Z,21.34
2018-07-30T02:18:37.533Z,21.35
2018-07-30T02:19:37.531Z,21.37
2018-07-30T02:20:37.530Z,21.38
2018-07-30T02:21:37.385Z,21.38
2018-07-30T02:22:37.537Z,21.35
2018-07-30T02:23:37.272Z,21.35
2018-07-30T02:24:37.522Z,21.35
2018-07-30T02:25:37.522Z,21.37
2018-07-30T02:26:37.269Z,21.37
2018-07-30T02:27:37.263Z,21.37
2018-07-30T02:28:37.513Z,21.34
2018-07-30T02:29:37.571Z,21.34
2018-07-30T02:30:37.509Z,21.37
2018-07-30T02:31:37.507Z,21.32
2018-07-30T02:32:37.504Z,21.35
2018-07-30T02:33:37.512Z,21.32
2018-07-30T02:34:37.500Z,21.34
2018-07-30T02:35:37.507Z,21.34
2018-07-30T02:36:37.245Z,21.38
2018-07-30T02:37:37.503Z,21.37
2018-07-30T02:38:37.495Z,21.32
2018-07-30T02:39:37.495Z,21.37
2018-07-30T02:40:37.486Z,21.37
2018-07-30T02:41:37.487Z,21.28
2018-07-30T02:42:37.549Z,21.34
2018-07-30T02:43:37.251Z,21.4
2018-07-30T02:44:37.230Z,21.38
2018-07-30T02:45:37.487Z,21.37
2018-07-30T02:46:37.493Z,21.47
2018-07-30T02:47:37.484Z,21.38
2018-07-30T02:48:37.477Z,21.38
2018-07-30T02:49:37.470Z,21.37
2018-07-30T02:50:37.473Z,21.38
2018-07-30T02:51:37.468Z,21.38
2018-07-30T02:52:37.488Z,21.35
2018-07-30T02:53:37.471Z,21.37
2018-07-30T02:54:37.459Z,21.37
2018-07-30T02:55:37.208Z,21.4
2018-07-30T02:56:37.462Z,21.4
2018-07-30T02:57:37.634Z,21.34
2018-07-30T02:58:37.462Z,21.43
2018-07-30T02:59:37.452Z,21.5
2018-07-30T03:00:37.450Z,21.44
2018-07-30T03:01:37.444Z,21.46
2018-07-30T03:02:37.448Z,21.44
2018-07-30T03:03:37.442Z,21.46
2018-07-30T03:04:37.438Z,21.53
2018-07-30T03:05:37.444Z,21.46
2018-07-30T03:06:37.189Z,21.61
2018-07-30T03:07:37.434Z,21.61
2018-07-30T03:08:37.434Z,21.47
2018-07-30T03:09:37.429Z,21.56
2018-07-30T03:10:37.427Z,21.56
2018-07-30T03:11:37.425Z,21.65
2018-07-30T03:12:37.173Z,21.65
2018-07-30T03:13:36.918Z,21.62
2018-07-30T03:14:37.419Z,21.72
2018-07-30T03:15:37.416Z,21.74
2018-07-30T03:16:37.415Z,21.77
2018-07-30T03:17:37.414Z,21.75
2018-07-30T03:18:37.166Z,21.77
2018-07-30T03:19:37.407Z,21.88
2018-07-30T03:20:37.406Z,21.84
2018-07-30T03:21:37.406Z,21.88
2018-07-30T03:22:37.407Z,21.88
2018-07-30T03:23:37.405Z,21.82
2018-07-30T03:24:37.403Z,21.86
2018-07-30T03:25:37.398Z,21.84
2018-07-30T03:26:37.142Z,21.79
2018-07-30T03:27:37.146Z,21.77
2018-07-30T03:28:37.468Z,21.83
2018-07-30T03:29:37.394Z,21.86
2018-07-30T03:30:37.390Z,21.84
2018-07-30T03:31:37.390Z,21.9
2018-07-30T03:32:37.133Z,21.94
2018-07-30T03:33:37.384Z,21.9
2018-07-30T03:34:37.381Z,21.96
2018-07-30T03:35:37.131Z,21.92
2018-07-30T03:36:37.378Z,21.9
2018-07-30T03:37:37.377Z,22
2018-07-30T03:38:37.119Z,22.07
2018-07-30T03:39:37.122Z,22
2018-07-30T03:40:37.370Z,22.07
2018-07-30T03:41:37.369Z,22.03
2018-07-30T03:42:37.113Z,22.09
2018-07-30T03:43:37.116Z,22.07
2018-07-30T03:44:37.112Z,22.17
2018-07-30T03:45:37.364Z,22.15
2018-07-30T03:46:37.358Z,22.18
2018-07-30T03:47:37.358Z,22.21
2018-07-30T03:48:37.352Z,22.22
2018-07-30T03:49:37.101Z,22.27
2018-07-30T03:50:37.380Z,22.27
2018-07-30T03:51:37.354Z,22.25
2018-07-30T03:52:37.347Z,22.27
2018-07-30T03:53:37.094Z,22.3
2018-07-30T03:54:37.403Z,22.3
2018-07-30T03:55:37.343Z,22.33
2018-07-30T03:56:37.342Z,22.33
2018-07-30T03:57:37.338Z,22.37
2018-07-30T03:58:37.337Z,22.28
2018-07-30T03:59:37.083Z,22.4
2018-07-30T04:00:37.334Z,22.45
2018-07-30T04:01:37.333Z,22.49
2018-07-30T04:02:37.331Z,22.58
2018-07-30T04:03:37.076Z,22.51
2018-07-30T04:04:37.329Z,22.54
2018-07-30T04:05:37.324Z,22.52
2018-07-30T04:06:37.431Z,22.54
2018-07-30T04:07:37.327Z,22.54
2018-07-30T04:08:37.322Z,22.6
2018-07-30T04:09:37.074Z,22.52
2018-07-30T04:10:37.318Z,22.65
2018-07-30T04:11:37.319Z,22.62
2018-07-30T04:12:37.380Z,22.61
2018-07-30T04:13:37.076Z,22.68
2018-07-30T04:14:37.316Z,22.64
2018-07-30T04:15:36.810Z,22.72
2018-07-30T04:16:37.309Z,22.65
2018-07-30T04:17:37.310Z,22.7
2018-07-30T04:18:37.308Z,22.68
2018-07-30T04:19:37.057Z,22.64
2018-07-30T04:20:37.305Z,22.7
2018-07-30T04:21:37.053Z,22.61
2018-07-30T04:22:37.312Z,22.75
2018-07-30T04:23:37.302Z,22.68
2018-07-30T04:24:37.304Z,22.68
2018-07-30T04:25:37.056Z,22.7
2018-07-30T04:26:37.299Z,22.73
2018-07-30T04:27:37.297Z,22.75
2018-07-30T04:28:37.043Z,22.68
2018-07-30T04:29:37.294Z,22.77
2018-07-30T04:30:37.293Z,22.73
2018-07-30T04:31:37.290Z,22.76
2018-07-30T04:32:37.038Z,22.77
2018-07-30T04:33:37.291Z,22.75
2018-07-30T04:34:37.291Z,22.75
2018-07-30T04:35:37.293Z,22.77
2018-07-30T04:36:37.292Z,22.8
2018-07-30T04:37:37.032Z,22.86
2018-07-30T04:38:37.031Z,22.82
2018-07-30T04:39:37.280Z,22.88
2018-07-30T04:40:37.025Z,22.88
2018-07-30T04:41:37.277Z,22.86
2018-07-30T04:42:37.275Z,22.95
2018-07-30T04:43:37.322Z,22.94
2018-07-30T04:44:37.289Z,22.98
2018-07-30T04:45:37.283Z,23.05
2018-07-30T04:46:37.024Z,23.01
2018-07-30T04:47:37.267Z,23.07
2018-07-30T04:48:37.269Z,23.05
2018-07-30T04:49:37.269Z,23.16
2018-07-30T04:50:37.019Z,23.22
2018-07-30T04:51:37.264Z,23.22
2018-07-30T04:52:37.261Z,23.19
2018-07-30T04:53:37.267Z,23.25
2018-07-30T04:54:37.263Z,23.39
2018-07-30T04:55:37.261Z,23.36
2018-07-30T04:56:37.269Z,23.48
2018-07-30T04:57:37.017Z,23.48
2018-07-30T04:58:37.258Z,23.54
2018-07-30T04:59:37.257Z,23.54
2018-07-30T05:00:37.262Z,23.66
2018-07-30T05:01:37.256Z,23.65
2018-07-30T05:02:37.256Z,23.83
2018-07-30T05:03:36.751Z,23.9
2018-07-30T05:04:37.004Z,23.9
2018-07-30T05:05:37.252Z,23.91
2018-07-30T05:06:37.257Z,23.95
2018-07-30T05:07:37.251Z,24.12
2018-07-30T05:08:37.006Z,24.12
2018-07-30T05:09:37.258Z,24.22
2018-07-30T05:10:37.249Z,24.28
2018-07-30T05:11:37.253Z,24.37
2018-07-30T05:12:37.255Z,24.47
2018-07-30T05:13:37.258Z,24.57
2018-07-30T05:14:37.256Z,24.61
2018-07-30T05:15:37.249Z,24.68
2018-07-30T05:16:36.998Z,24.81
2018-07-30T05:17:37.251Z,24.88
2018-07-30T05:18:37.285Z,24.87
2018-07-30T05:19:37.319Z,24.95
2018-07-30T05:20:37.001Z,25.03
2018-07-30T05:21:37.249Z,25.15
2018-07-30T05:22:37.259Z,25.2
2018-07-30T05:23:37.252Z,25.25
2018-07-30T05:24:37.258Z,25.32
2018-07-30T05:25:37.209Z,25.38
2018-07-30T05:26:37.259Z,25.35
2018-07-30T05:27:37.004Z,25.35
2018-07-30T05:28:37.259Z,25.43
2018-07-30T05:29:37.007Z,25.45
2018-07-30T05:30:37.258Z,25.55
2018-07-30T05:31:37.402Z,25.61
2018-07-30T05:32:37.011Z,25.64
2018-07-30T05:33:37.016Z,25.62
2018-07-30T05:34:37.011Z,25.67
2018-07-30T05:35:37.268Z,25.62
2018-07-30T05:36:37.016Z,25.64
2018-07-30T05:37:37.271Z,25.7
2018-07-30T05:38:37.269Z,25.72
2018-07-30T05:39:37.271Z,25.73
2018-07-30T05:40:37.021Z,25.75
2018-07-30T05:41:37.023Z,25.73
2018-07-30T05:42:36.778Z,25.8
2018-07-30T05:43:37.024Z,25.85
2018-07-30T05:44:37.286Z,25.9
2018-07-30T05:45:37.277Z,26.02
2018-07-30T05:46:37.283Z,25.85
2018-07-30T05:47:37.283Z,25.97
2018-07-30T05:48:37.294Z,25.91
2018-07-30T05:49:37.284Z,25.98
2018-07-30T05:50:37.035Z,25.97
2018-07-30T05:51:37.296Z,25.95
2018-07-30T05:52:37.288Z,25.92
2018-07-30T05:53:37.292Z,26.02
2018-07-30T05:54:37.292Z,26.06
2018-07-30T05:55:37.296Z,25.97
2018-07-30T05:56:37.298Z,25.87
2018-07-30T05:57:37.046Z,25.97
2018-07-30T05:58:37.310Z,25.85
2018-07-30T05:59:37.538Z,25.85
2018-07-30T06:00:37.049Z,25.92
2018-07-30T06:01:37.303Z,25.95
2018-07-30T06:02:37.306Z,25.91
2018-07-30T06:03:37.313Z,26.02
2018-07-30T06:04:37.311Z,25.91
2018-07-30T06:05:37.601Z,25.97
2018-07-30T06:06:37.313Z,25.92
2018-07-30T06:07:37.315Z,25.98
2018-07-30T06:08:37.314Z,25.94
2018-07-30T06:09:37.456Z,25.91
2018-07-30T06:10:37.066Z,25.97
2018-07-30T06:11:37.320Z,25.95
2018-07-30T06:12:37.319Z,26.02
2018-07-30T06:13:37.322Z,26.06
2018-07-30T06:14:37.071Z,26.13
2018-07-30T06:15:37.334Z,26.1
2018-07-30T06:16:37.341Z,26.02
2018-07-30T06:17:37.085Z,26.09
2018-07-30T06:18:37.327Z,26.05
2018-07-30T06:19:37.082Z,26.06
2018-07-30T06:20:37.342Z,26.1
2018-07-30T06:21:37.088Z,26.2
2018-07-30T06:22:37.088Z,26.2
2018-07-30T06:23:37.089Z,26.2
2018-07-30T06:24:37.339Z,26.28
2018-07-30T06:25:37.342Z,26.23
2018-07-30T06:26:37.447Z,26.29
2018-07-30T06:27:37.359Z,26.23
2018-07-30T06:28:37.406Z,26.35
2018-07-30T06:29:37.378Z,26.29
2018-07-30T06:30:37.390Z,26.26
2018-07-30T06:31:37.352Z,26.35
2018-07-30T06:32:37.354Z,26.35
2018-07-30T06:33:37.351Z,26.39
2018-07-30T06:34:37.354Z,26.36
2018-07-30T06:35:37.358Z,26.4
2018-07-30T06:36:37.363Z,26.51
2018-07-30T06:37:37.360Z,26.58
2018-07-30T06:38:37.547Z,26.63
2018-07-30T06:39:37.375Z,26.55
2018-07-30T06:40:37.367Z,26.7
2018-07-30T06:41:37.373Z,26.82
2018-07-30T06:42:37.118Z,26.77
2018-07-30T06:43:37.378Z,26.81
2018-07-30T06:44:37.387Z,26.89
2018-07-30T06:45:37.382Z,26.94
2018-07-30T06:46:37.378Z,26.87
2018-07-30T06:47:37.135Z,26.95
2018-07-30T06:48:37.390Z,27.02
2018-07-30T06:49:37.407Z,27.02
2018-07-30T06:50:37.389Z,27.03
2018-07-30T06:51:37.145Z,27.04
2018-07-30T06:52:37.405Z,26.88
2018-07-30T06:53:37.406Z,27.04
2018-07-30T06:54:37.151Z,27
2018-07-30T06:55:37.401Z,27
2018-07-30T06:56:37.408Z,27.02
2018-07-30T06:57:37.408Z,27.12
2018-07-30T06:58:37.409Z,27.19
2018-07-30T06:59:37.163Z,27.18
2018-07-30T07:00:37.415Z,27.25
2018-07-30T07:01:37.418Z,27.34
2018-07-30T07:02:37.189Z,27.27
2018-07-30T07:03:37.171Z,27.37
2018-07-30T07:04:37.435Z,27.47
2018-07-30T07:05:37.429Z,27.47
2018-07-30T07:06:37.430Z,27.49
2018-07-30T07:07:37.434Z,27.55
2018-07-30T07:08:37.444Z,27.57
2018-07-30T07:09:37.443Z,27.59
2018-07-30T07:10:37.460Z,27.62
2018-07-30T07:11:37.195Z,27.63
2018-07-30T07:12:37.450Z,27.63
2018-07-30T07:13:37.452Z,27.74
2018-07-30T07:14:37.202Z,27.63
2018-07-30T07:15:37.459Z,27.62
2018-07-30T07:16:37.342Z,27.57
2018-07-30T07:17:37.465Z,27.63
2018-07-30T07:18:37.476Z,27.7
2018-07-30T07:19:37.228Z,27.65
2018-07-30T07:20:37.279Z,27.7
2018-07-30T07:21:37.721Z,27.67
2018-07-30T07:22:37.480Z,27.65
2018-07-30T07:23:37.496Z,27.69
2018-07-30T07:24:37.252Z,27.78
2018-07-30T07:25:37.506Z,27.67
2018-07-30T07:26:37.492Z,27.81
2018-07-30T07:27:36.996Z,27.9
2018-07-30T07:28:37.252Z,27.97
2018-07-30T07:29:37.252Z,28.04
2018-07-30T07:30:37.516Z,28.12
2018-07-30T07:31:37.258Z,28.21
2018-07-30T07:32:37.514Z,28.27
2018-07-30T07:33:37.518Z,28.31
2018-07-30T07:34:50.304Z,28.33
2018-07-30T07:35:37.544Z,28.37
2018-07-30T07:36:37.527Z,28.37
2018-07-30T07:37:37.534Z,28.31
2018-07-30T07:38:37.531Z,28.31
2018-07-30T07:39:37.535Z,28.33
2018-07-30T07:40:37.541Z,28.27
2018-07-30T07:41:37.554Z,28.33
2018-07-30T07:42:37.547Z,28.44
2018-07-30T07:43:37.548Z,28.4
2018-07-30T07:44:37.561Z,28.55
2018-07-30T07:45:37.557Z,28.64
2018-07-30T07:46:37.560Z,28.71
2018-07-30T07:47:37.599Z,28.76
2018-07-30T07:48:37.610Z,28.83
2018-07-30T07:49:37.579Z,28.89
2018-07-30T07:50:38.644Z,28.9
2018-07-30T07:51:37.697Z,29.06
2018-07-30T07:52:37.597Z,29.11
2018-07-30T07:53:37.622Z,29.3
2018-07-30T07:54:37.599Z,29.52
2018-07-30T07:55:37.864Z,29.71
2018-07-30T07:56:37.620Z,29.73
2018-07-30T07:57:37.622Z,29.8
2018-07-30T07:58:37.626Z,29.94
2018-07-30T07:59:37.372Z,29.83
2018-07-30T08:00:37.376Z,29.92
2018-07-30T08:01:37.730Z,29.85
2018-07-30T08:02:37.643Z,29.82
2018-07-30T08:03:37.645Z,29.83
2018-07-30T08:04:37.656Z,29.94
2018-07-30T08:05:37.672Z,29.92
2018-07-30T08:06:37.670Z,30
2018-07-30T08:07:37.689Z,29.94
2018-07-30T08:08:37.674Z,29.83
2018-07-30T08:09:37.504Z,29.85
2018-07-30T08:10:37.686Z,29.82
2018-07-30T08:11:37.458Z,29.86
2018-07-30T08:12:50.444Z,29.82
2018-07-30T08:13:37.739Z,29.89
2018-07-30T08:14:37.211Z,29.9
2018-07-30T08:15:37.730Z,30.08
2018-07-30T08:16:37.726Z,30.38
2018-07-30T08:17:40.280Z,30.49
2018-07-30T08:18:37.483Z,30.6
2018-07-30T08:19:50.495Z,30.54
2018-07-30T08:20:43.761Z,30.65
2018-07-30T08:21:50.495Z,30.64
2018-07-30T08:22:37.767Z,30.72
2018-07-30T08:23:37.775Z,30.89
2018-07-30T08:24:37.822Z,31.19
2018-07-30T08:25:40.475Z,31.63
2018-07-30T08:26:37.567Z,31.96
2018-07-30T08:27:37.800Z,32.35
2018-07-30T08:28:37.807Z,32.7
2018-07-30T08:29:37.824Z,33.14
2018-07-30T08:30:37.575Z,33.59
2018-07-30T08:31:37.843Z,33.81
2018-07-30T08:32:37.858Z,34.17
2018-07-30T08:33:37.864Z,34.44
2018-07-30T08:34:37.879Z,34.81
2018-07-30T08:35:37.877Z,35.06
2018-07-30T08:36:37.902Z,35.23
2018-07-30T08:37:37.937Z,35.4
2018-07-30T08:38:37.666Z,35.45
2018-07-30T08:39:37.926Z,35.6
2018-07-30T08:40:37.939Z,35.58
2018-07-30T08:41:37.948Z,35.7
2018-07-30T08:42:37.968Z,35.68
2018-07-30T08:43:37.978Z,35.84
2018-07-30T08:44:37.989Z,35.94
2018-07-30T08:45:37.750Z,36.07
2018-07-30T08:46:38.020Z,36.03
2018-07-30T08:47:38.029Z,35.84
2018-07-30T08:48:38.048Z,35.6
2018-07-30T08:49:38.067Z,35.22
2018-07-30T08:50:38.087Z,34.91
2018-07-30T08:51:38.085Z,34.65
2018-07-30T08:52:50.843Z,34.5
2018-07-30T08:53:38.142Z,34.37
2018-07-30T08:54:37.878Z,34.19
2018-07-30T08:55:37.898Z,33.98
2018-07-30T08:56:37.903Z,33.73
2018-07-30T08:57:37.915Z,33.65
2018-07-30T08:58:38.183Z,33.49
2018-07-30T08:59:37.938Z,33.39
2018-07-30T09:00:38.217Z,33.31
2018-07-30T09:01:38.226Z,33.09
2018-07-30T09:02:38.226Z,32.94
2018-07-30T09:03:37.997Z,32.85
2018-07-30T09:04:38.251Z,32.7
2018-07-30T09:05:38.257Z,32.57
2018-07-30T09:06:38.872Z,32.38
2018-07-30T09:07:38.023Z,32.21
2018-07-30T09:08:38.037Z,32.04
2018-07-30T09:09:38.044Z,31.85
2018-07-30T09:10:38.058Z,31.69
2018-07-30T09:11:38.062Z,31.54
2018-07-30T09:12:38.341Z,31.46
2018-07-30T09:13:38.336Z,31.35
2018-07-30T09:14:38.333Z,31.26
2018-07-30T09:15:38.090Z,31.16
2018-07-30T09:16:38.361Z,31.04
2018-07-30T09:17:38.373Z,30.97
2018-07-30T09:18:38.368Z,30.91
2018-07-30T09:19:38.125Z,30.77
2018-07-30T09:20:38.132Z,30.73
2018-07-30T09:21:38.391Z,30.75
2018-07-30T09:22:38.394Z,30.7
2018-07-30T09:23:38.407Z,30.76
2018-07-30T09:24:38.152Z,30.73
2018-07-30T09:25:38.414Z,30.72
2018-07-30T09:26:38.176Z,30.55
2018-07-30T09:27:38.425Z,30.62
2018-07-30T09:28:38.194Z,30.58
2018-07-30T09:29:38.183Z,30.61
2018-07-30T09:30:38.440Z,30.53
2018-07-30T09:31:38.450Z,30.54
2018-07-30T09:32:38.660Z,30.54
2018-07-30T09:33:38.206Z,30.45
2018-07-30T09:34:38.466Z,30.46
2018-07-30T09:35:38.469Z,30.34
2018-07-30T09:36:38.477Z,30.46
2018-07-30T09:37:38.248Z,30.49
2018-07-30T09:38:38.560Z,30.46
2018-07-30T09:39:38.414Z,30.42
2018-07-30T09:40:38.501Z,30.43
2018-07-30T09:41:38.510Z,30.46
2018-07-30T09:42:38.255Z,30.49
2018-07-30T09:43:38.510Z,30.49
2018-07-30T09:44:38.488Z,30.49
2018-07-30T09:45:38.523Z,30.53
2018-07-30T09:46:38.530Z,30.51
2018-07-30T09:47:38.533Z,30.53
2018-07-30T09:48:38.036Z,30.57
2018-07-30T09:49:38.549Z,30.6
2018-07-30T09:50:38.466Z,30.6
2018-07-30T09:51:38.557Z,30.61
2018-07-30T09:52:38.560Z,30.65
2018-07-30T09:53:38.565Z,30.64
2018-07-30T09:54:38.604Z,30.58
2018-07-30T09:55:38.328Z,30.75
2018-07-30T09:56:38.586Z,30.76
2018-07-30T09:57:38.594Z,30.84
2018-07-30T09:58:38.628Z,30.75
2018-07-30T09:59:38.374Z,30.88
2018-07-30T10:00:38.601Z,30.82
2018-07-30T10:01:38.361Z,30.77
2018-07-30T10:02:38.360Z,30.8
2018-07-30T10:03:38.625Z,30.73
2018-07-30T10:04:38.658Z,30.73
2018-07-30T10:05:38.654Z,30.7
2018-07-30T10:06:38.383Z,30.65
2018-07-30T10:07:38.486Z,30.6
2018-07-30T10:08:38.650Z,30.51
2018-07-30T10:09:38.648Z,30.46
2018-07-30T10:10:38.653Z,30.51
2018-07-30T10:11:38.832Z,30.62
2018-07-30T10:12:38.667Z,30.61
2018-07-30T10:13:38.419Z,30.64
2018-07-30T10:14:38.685Z,30.58
2018-07-30T10:15:38.435Z,30.64
2018-07-30T10:16:38.684Z,30.72
2018-07-30T10:17:38.562Z,30.79
2018-07-30T10:18:38.446Z,30.75
2018-07-30T10:19:38.701Z,30.73
2018-07-30T10:20:38.708Z,30.76
2018-07-30T10:21:38.709Z,30.79
2018-07-30T10:22:38.718Z,30.73
2018-07-30T10:23:38.595Z,30.75
2018-07-30T10:24:38.738Z,30.76
2018-07-30T10:25:38.732Z,30.79
2018-07-30T10:26:38.736Z,30.89
2018-07-30T10:27:38.740Z,30.83
2018-07-30T10:28:38.502Z,30.82
2018-07-30T10:29:38.760Z,30.88
2018-07-30T10:30:38.822Z,30.84
2018-07-30T10:31:38.760Z,30.88
2018-07-30T10:32:38.775Z,30.94
2018-07-30T10:33:38.527Z,30.92
2018-07-30T10:34:38.993Z,30.89
2018-07-30T10:35:38.529Z,30.95
2018-07-30T10:36:38.788Z,30.92
2018-07-30T10:37:38.834Z,30.95
2018-07-30T10:38:38.565Z,31.04
2018-07-30T10:39:38.822Z,31.02
2018-07-30T10:40:38.809Z,31.02
2018-07-30T10:41:38.822Z,31.04
2018-07-30T10:42:38.579Z,31.09
2018-07-30T10:43:38.819Z,31.12
2018-07-30T10:44:38.827Z,31.17
2018-07-30T10:45:38.839Z,31.14
2018-07-30T10:46:38.851Z,31.2
2018-07-30T10:47:38.849Z,31.23
2018-07-30T10:48:38.857Z,31.38
2018-07-30T10:49:38.870Z,31.29
2018-07-30T10:50:38.605Z,31.31
2018-07-30T10:51:38.867Z,31.23
2018-07-30T10:52:38.871Z,31.31
2018-07-30T10:53:38.920Z,31.23
2018-07-30T10:54:38.885Z,31.31
2018-07-30T10:55:38.639Z,31.36
2018-07-30T10:56:39.012Z,31.36
2018-07-30T10:57:38.641Z,31.36
2018-07-30T10:58:38.983Z,31.43
2018-07-30T10:59:38.902Z,31.38
2018-07-30T11:00:38.929Z,31.46
2018-07-30T11:01:38.913Z,31.41
2018-07-30T11:02:38.918Z,31.48
2018-07-30T11:03:38.928Z,31.43
2018-07-30T11:04:38.690Z,31.44
2018-07-30T11:05:38.684Z,31.48
2018-07-30T11:06:38.944Z,31.54
2018-07-30T11:07:38.947Z,31.66
2018-07-30T11:08:38.950Z,31.62
2018-07-30T11:09:39.084Z,31.54
2018-07-30T11:10:38.735Z,31.62
2018-07-30T11:11:38.971Z,31.66
2018-07-30T11:12:38.985Z,31.72
2018-07-30T11:13:39.011Z,31.69
2018-07-30T11:14:39.025Z,31.72
2018-07-30T11:15:38.995Z,31.73
2018-07-30T11:16:39.005Z,31.69
2018-07-30T11:17:39.033Z,31.75
2018-07-30T11:18:39.031Z,31.75
2018-07-30T11:19:39.020Z,31.75
2018-07-30T11:20:39.015Z,31.8
2018-07-30T11:21:38.895Z,31.88
2018-07-30T11:22:38.789Z,31.88
2018-07-30T11:23:38.530Z,31.92
2018-07-30T11:24:39.047Z,31.99
2018-07-30T11:25:39.047Z,31.91
2018-07-30T11:26:39.048Z,31.93
2018-07-30T11:27:39.056Z,31.96
2018-07-30T11:28:38.852Z,31.89
2018-07-30T11:29:39.069Z,31.96
2018-07-30T11:30:38.829Z,32.03
2018-07-30T11:31:38.825Z,32.04
2018-07-30T11:32:38.838Z,32.06
2018-07-30T11:33:39.423Z,32
2018-07-30T11:34:39.113Z,32.07
2018-07-30T11:35:38.853Z,32.18
2018-07-30T11:36:39.118Z,32.15
2018-07-30T11:37:38.655Z,32.22
2018-07-30T11:38:38.619Z,32.23
2018-07-30T11:39:39.172Z,32.22
2018-07-30T11:40:38.631Z,32.25
2018-07-30T11:41:39.135Z,32.21
2018-07-30T11:42:39.154Z,32.22
2018-07-30T11:43:38.931Z,32.25
2018-07-30T11:44:39.158Z,32.11
2018-07-30T11:45:39.164Z,32.26
2018-07-30T11:46:39.162Z,32.26
2018-07-30T11:47:39.172Z,32.33
2018-07-30T11:48:38.735Z,32.26
2018-07-30T11:49:39.183Z,32.32
2018-07-30T11:50:39.187Z,32.22
2018-07-30T11:51:39.196Z,32.33
2018-07-30T11:52:39.203Z,32.22
2018-07-30T11:53:39.220Z,32.25
2018-07-30T11:54:39.301Z,32.29
2018-07-30T11:55:39.217Z,32.29
2018-07-30T11:56:39.224Z,32.38
2018-07-30T11:57:39.239Z,32.37
2018-07-30T11:58:38.994Z,32.38
2018-07-30T11:59:38.994Z,32.41
2018-07-30T12:00:38.742Z,32.44
2018-07-30T12:01:39.012Z,32.35
2018-07-30T12:02:39.007Z,32.33
2018-07-30T12:03:39.014Z,32.56
2018-07-30T12:04:39.030Z,32.51
2018-07-30T12:05:39.025Z,32.51
2018-07-30T12:06:39.293Z,32.57
2018-07-30T12:07:39.042Z,32.5
2018-07-30T12:08:39.054Z,32.55
2018-07-30T12:09:39.057Z,32.47
2018-07-30T12:10:39.334Z,32.55
2018-07-30T12:11:39.333Z,32.57
2018-07-30T12:12:39.321Z,32.5
2018-07-30T12:13:39.505Z,32.55
2018-07-30T12:14:39.333Z,32.51
2018-07-30T12:15:39.341Z,32.55
2018-07-30T12:16:39.365Z,32.56
2018-07-30T12:17:39.393Z,32.52
2018-07-30T12:18:39.363Z,32.66
2018-07-30T12:19:39.369Z,32.72
2018-07-30T12:20:39.387Z,32.65
2018-07-30T12:21:39.470Z,32.65
2018-07-30T12:22:39.408Z,32.52
2018-07-30T12:23:39.142Z,32.63
2018-07-30T12:24:39.160Z,32.6
2018-07-30T12:25:39.396Z,32.69
2018-07-30T12:26:39.402Z,32.52
2018-07-30T12:27:39.160Z,32.65
2018-07-30T12:28:39.164Z,32.7
2018-07-30T12:29:39.187Z,32.62
2018-07-30T12:30:39.715Z,32.59
2018-07-30T12:31:39.454Z,32.63
2018-07-30T12:32:39.188Z,32.65
2018-07-30T12:33:39.470Z,32.6
2018-07-30T12:34:39.200Z,32.66
2018-07-30T12:35:39.468Z,32.75
2018-07-30T12:36:39.736Z,32.72
2018-07-30T12:37:39.221Z,32.74
2018-07-30T12:38:39.494Z,32.7
2018-07-30T12:39:38.979Z,32.67
2018-07-30T12:40:39.490Z,32.66
2018-07-30T12:41:39.283Z,32.62
2018-07-30T12:42:39.544Z,32.79
2018-07-30T12:43:39.530Z,32.7
2018-07-30T12:44:39.522Z,32.74
2018-07-30T12:45:39.522Z,32.77
2018-07-30T12:46:39.523Z,32.77
2018-07-30T12:47:39.537Z,32.75
2018-07-30T12:48:39.295Z,32.75
2018-07-30T12:49:39.302Z,32.77
2018-07-30T12:50:39.923Z,32.89
2018-07-30T12:51:39.585Z,32.84
2018-07-30T12:52:39.613Z,32.89
2018-07-30T12:53:39.593Z,32.96
2018-07-30T12:54:39.679Z,32.94
2018-07-30T12:55:39.578Z,32.87